createdAt,value
2019-05-03T00:02:21.972Z,2.42
2019-05-03T00:04:52.894Z,3.00
2019-05-03T00:07:22.301Z,1.80
2019-05-03T00:09:52.091Z,2.10
2019-05-03T00:12:22.145Z,2.60
2019-05-03T00:14:52.315Z,3.02
2019-05-03T00:17:21.877Z,2.60
2019-05-03T00:19:50.509Z,2.20
2019-05-03T00:22:18.934Z,2.62
2019-05-03T00:24:47.404Z,2.17
2019-05-03T00:27:16.342Z,2.50
2019-05-03T00:29:44.777Z,2.27
2019-05-03T00:32:13.196Z,2.27
2019-05-03T00:34:49.291Z,2.12
2019-05-03T00:37:19.348Z,2.12
2019-05-03T00:39:49.410Z,2.40
2019-05-03T00:42:17.873Z,1.95
2019-05-03T00:44:46.289Z,2.08
2019-05-03T00:47:14.730Z,2.20
2019-05-03T00:49:43.534Z,2.10
2019-05-03T00:52:11.977Z,2.83
2019-05-03T00:54:42.242Z,2.30
2019-05-03T00:57:12.065Z,2.12
2019-05-03T00:59:42.039Z,2.98
2019-05-03T01:02:11.841Z,2.33
2019-05-03T01:04:42.571Z,2.50
2019-05-03T01:07:11.694Z,2.30
2019-05-03T01:09:42.297Z,2.25
2019-05-03T01:12:12.470Z,2.27
2019-05-03T01:14:42.244Z,2.35
2019-05-03T01:17:11.780Z,2.27
2019-05-03T01:19:42.601Z,2.55
2019-05-03T01:22:11.915Z,1.95
2019-05-03T01:24:42.742Z,2.80
2019-05-03T01:27:32.789Z,2.30
2019-05-03T01:29:52.268Z,2.10
2019-05-03T01:32:22.256Z,1.95
2019-05-03T01:34:52.442Z,2.62
2019-05-03T01:37:22.698Z,2.25
2019-05-03T01:39:52.659Z,2.58
2019-05-03T01:42:22.667Z,2.52
2019-05-03T01:44:52.301Z,2.77
2019-05-03T01:47:22.397Z,2.27
2019-05-03T01:49:52.571Z,2.35
2019-05-03T01:52:32.428Z,2.17
2019-05-03T01:55:03.373Z,2.77
2019-05-03T01:57:32.448Z,2.45
2019-05-03T02:00:02.810Z,2.40
2019-05-03T02:02:38.755Z,2.45
2019-05-03T02:05:15.540Z,2.30
2019-05-03T02:07:43.954Z,2.40
2019-05-03T02:10:13.167Z,2.33
2019-05-03T02:12:41.802Z,2.25
2019-05-03T02:15:11.906Z,2.30
2019-05-03T02:17:42.723Z,2.87
2019-05-03T02:20:12.632Z,2.70
2019-05-03T02:22:42.773Z,2.70
2019-05-03T02:25:12.411Z,2.80
2019-05-03T02:27:42.260Z,2.52
2019-05-03T02:30:14.238Z,2.80
2019-05-03T02:32:43.997Z,2.77
2019-05-03T02:35:13.980Z,2.55
2019-05-03T02:37:44.626Z,2.70
2019-05-03T02:40:13.302Z,2.83
2019-05-03T02:42:46.107Z,2.58
2019-05-03T02:47:47.144Z,3.02
2019-05-03T02:50:17.182Z,2.45
2019-05-03T02:52:45.922Z,3.30
2019-05-03T02:55:16.083Z,2.87
2019-05-03T02:57:46.561Z,3.02
2019-05-03T03:00:16.930Z,3.00
2019-05-03T03:02:45.989Z,2.52
2019-05-03T03:05:16.677Z,3.33
2019-05-03T03:07:46.800Z,3.08
2019-05-03T03:10:16.333Z,3.60
2019-05-03T03:12:49.268Z,3.05
2019-05-03T03:15:18.208Z,2.92
2019-05-03T03:17:49.629Z,2.70
2019-05-03T03:20:18.754Z,2.80
2019-05-03T03:22:50.527Z,2.62
2019-05-03T03:25:22.097Z,2.83
2019-05-03T03:27:55.580Z,3.02
2019-05-03T03:30:40.218Z,3.27
2019-05-03T03:33:11.738Z,2.75
2019-05-03T03:35:40.950Z,3.17
2019-05-03T03:38:10.174Z,2.72
2019-05-03T03:40:40.517Z,2.70
2019-05-03T03:43:10.855Z,2.67
2019-05-03T03:45:39.548Z,3.47
2019-05-03T03:48:10.943Z,2.83
2019-05-03T03:50:41.987Z,2.70
2019-05-03T03:53:12.238Z,2.50
2019-05-03T03:55:45.590Z,2.85
2019-05-03T03:58:21.795Z,2.70
2019-05-03T04:00:46.211Z,2.92
2019-05-03T04:03:15.862Z,3.45
2019-05-03T04:05:46.734Z,3.05
2019-05-03T04:08:16.492Z,3.00
2019-05-03T04:10:46.332Z,2.62
2019-05-03T04:13:16.109Z,3.00
2019-05-03T04:15:46.342Z,2.70
2019-05-03T04:18:16.538Z,3.00
2019-05-03T04:20:45.816Z,3.15
2019-05-03T04:23:16.303Z,2.83
2019-05-03T04:25:45.349Z,2.85
2019-05-03T04:28:16.100Z,3.05
2019-05-03T04:30:46.031Z,3.08
2019-05-03T04:33:16.023Z,2.92
2019-05-03T04:35:46.496Z,3.37
2019-05-03T04:38:16.264Z,3.20
2019-05-03T04:40:45.480Z,2.65
2019-05-03T04:43:16.375Z,3.15
2019-05-03T04:45:46.798Z,3.37
2019-05-03T04:48:16.050Z,3.83
2019-05-03T04:50:45.716Z,2.65
2019-05-03T04:53:16.152Z,2.95
2019-05-03T04:55:46.834Z,3.08
2019-05-03T04:58:16.093Z,2.80
2019-05-03T05:00:46.517Z,3.02
2019-05-03T05:03:15.492Z,3.00
2019-05-03T05:05:45.278Z,2.83
2019-05-03T05:08:16.254Z,3.10
2019-05-03T05:10:45.509Z,3.12
2019-05-03T05:13:15.717Z,2.85
2019-05-03T05:15:45.968Z,3.10
2019-05-03T05:18:16.380Z,3.27
2019-05-03T05:20:46.866Z,3.00
2019-05-03T05:23:15.461Z,2.95
2019-05-03T05:25:55.026Z,2.62
2019-05-03T05:28:44.753Z,3.05
2019-05-03T05:31:15.078Z,2.87
2019-05-03T05:33:44.632Z,2.85
2019-05-03T05:36:15.317Z,2.95
2019-05-03T05:38:45.026Z,3.60
2019-05-03T05:41:15.501Z,2.85
2019-05-03T05:43:44.751Z,3.37
2019-05-03T05:46:14.668Z,3.08
2019-05-03T05:48:45.269Z,3.72
2019-05-03T05:51:15.976Z,3.62
2019-05-03T05:53:44.737Z,3.17
2019-05-03T05:56:15.800Z,2.98
2019-05-03T05:58:46.809Z,2.83
2019-05-03T06:01:20.061Z,3.15
2019-05-03T06:03:48.887Z,2.45
2019-05-03T06:06:24.945Z,2.70
2019-05-03T06:08:57.798Z,2.50
2019-05-03T06:11:34.746Z,2.83
2019-05-03T06:14:07.792Z,3.00
2019-05-03T06:16:40.308Z,2.40
2019-05-03T06:19:22.605Z,2.70
2019-05-03T06:21:54.754Z,2.40
2019-05-03T06:24:34.926Z,2.35
2019-05-03T06:27:11.150Z,2.40
2019-05-03T06:29:40.344Z,2.55
2019-05-03T06:32:10.384Z,2.55
2019-05-03T06:34:38.855Z,2.60
2019-05-03T06:37:09.417Z,2.40
2019-05-03T06:39:37.902Z,2.22
2019-05-03T06:42:09.948Z,2.62
2019-05-03T06:44:37.069Z,2.75
2019-05-03T06:47:09.100Z,2.52
2019-05-03T06:49:39.297Z,2.58
2019-05-03T06:52:06.070Z,2.30
2019-05-03T06:54:37.668Z,2.22
2019-05-03T06:57:09.540Z,2.15
2019-05-03T06:59:40.681Z,2.22
2019-05-03T07:02:10.740Z,3.02
2019-05-03T07:04:40.842Z,2.22
2019-05-03T07:07:28.042Z,2.02
2019-05-03T07:10:14.884Z,2.40
2019-05-03T07:13:00.420Z,2.40
2019-05-03T07:15:29.276Z,2.60
2019-05-03T07:17:58.193Z,2.12
2019-05-03T07:20:26.843Z,2.67
2019-05-03T07:22:56.083Z,2.42
2019-05-03T07:25:25.591Z,2.50
2019-05-03T07:27:55.504Z,2.27
2019-05-03T07:30:24.904Z,2.37
2019-05-03T07:32:55.253Z,2.70
2019-05-03T07:35:25.165Z,2.72
2019-05-03T07:37:55.309Z,2.20
2019-05-03T07:40:25.255Z,2.20
2019-05-03T07:42:55.537Z,3.02
2019-05-03T07:45:25.476Z,2.30
2019-05-03T07:47:55.784Z,2.42
2019-05-03T07:50:25.780Z,2.35
2019-05-03T07:52:55.568Z,2.58
2019-05-03T07:55:42.515Z,2.10
2019-05-03T07:58:12.605Z,2.90
2019-05-03T08:00:41.195Z,2.72
2019-05-03T08:03:09.649Z,2.27
2019-05-03T08:05:38.077Z,2.02
2019-05-03T08:08:06.505Z,2.10
2019-05-03T08:10:35.141Z,2.10
2019-05-03T08:13:04.634Z,1.90
2019-05-03T08:15:34.779Z,1.62
2019-05-03T08:18:04.831Z,1.85
2019-05-03T08:20:35.034Z,2.25
2019-05-03T08:23:05.299Z,2.70
2019-05-03T08:25:35.434Z,2.20
2019-05-03T08:28:05.293Z,1.98
2019-05-03T08:30:54.317Z,2.27
2019-05-03T08:33:39.812Z,1.65
2019-05-03T08:36:08.253Z,1.70
2019-05-03T08:38:36.695Z,2.30
2019-05-03T08:41:06.964Z,1.80
2019-05-03T08:43:35.829Z,1.57
2019-05-03T08:46:04.709Z,2.12
2019-05-03T08:48:35.243Z,1.67
2019-05-03T08:51:04.552Z,2.00
2019-05-03T08:53:35.633Z,1.80
2019-05-03T08:56:05.276Z,2.05
2019-05-03T08:58:34.834Z,2.42
2019-05-03T09:01:05.531Z,2.30
2019-05-03T09:03:36.391Z,2.20
2019-05-03T09:06:05.143Z,1.57
2019-05-03T09:08:35.418Z,1.95
2019-05-03T09:11:09.417Z,2.15
2019-05-03T09:13:55.703Z,2.00
2019-05-03T09:16:25.198Z,1.80
2019-05-03T09:18:54.904Z,1.75
2019-05-03T09:21:25.525Z,2.20
2019-05-03T09:23:55.340Z,1.72
2019-05-03T09:26:28.825Z,2.00
2019-05-03T09:28:55.663Z,2.20
2019-05-03T09:31:24.662Z,2.30
2019-05-03T09:33:54.817Z,1.82
2019-05-03T09:36:25.420Z,1.80
2019-05-03T09:38:54.983Z,2.08
2019-05-03T09:41:25.549Z,2.47
2019-05-03T09:43:55.459Z,2.65
2019-05-03T09:46:26.335Z,1.95
2019-05-03T09:49:03.310Z,2.05
2019-05-03T09:51:25.525Z,1.90
2019-05-03T09:53:55.843Z,1.87
2019-05-03T09:56:53.541Z,2.08
2019-05-03T09:59:14.770Z,1.77
2019-05-03T10:01:45.429Z,1.77
2019-05-03T10:04:13.957Z,2.05
2019-05-03T10:06:42.405Z,1.80
2019-05-03T10:09:10.854Z,2.17
2019-05-03T10:11:39.453Z,1.70
2019-05-03T10:14:07.900Z,1.70
2019-05-03T10:16:37.964Z,1.45
2019-05-03T10:19:06.409Z,1.75
2019-05-03T10:21:36.466Z,1.52
2019-05-03T10:24:05.689Z,1.30
2019-05-03T10:26:35.652Z,1.37
2019-05-03T10:29:05.497Z,1.55
2019-05-03T10:31:44.949Z,1.20
2019-05-03T10:34:15.410Z,1.45
2019-05-03T10:36:43.488Z,1.27
2019-05-03T10:39:12.350Z,1.42
2019-05-03T10:41:40.948Z,1.40
2019-05-03T10:44:10.080Z,1.75
2019-05-03T10:46:39.083Z,1.75
2019-05-03T10:49:07.692Z,1.60
2019-05-03T10:51:37.774Z,1.50
2019-05-03T10:54:06.240Z,1.45
2019-05-03T10:56:37.372Z,1.40
2019-05-03T10:59:07.559Z,1.62
2019-05-03T11:01:37.911Z,1.55
2019-05-03T11:04:06.356Z,1.50
2019-05-03T11:06:35.461Z,1.62
2019-05-03T11:09:05.831Z,1.55
2019-05-03T11:11:35.211Z,1.50
2019-05-03T11:14:05.533Z,1.80
2019-05-03T11:16:35.157Z,1.72
2019-05-03T11:19:05.412Z,1.80
2019-05-03T11:21:34.792Z,1.50
2019-05-03T11:24:03.275Z,1.80
2019-05-03T11:26:31.796Z,1.72
2019-05-03T11:29:00.677Z,2.10
2019-05-03T11:31:45.868Z,1.82
2019-05-03T11:34:22.386Z,1.75
2019-05-03T11:37:05.967Z,2.47
2019-05-03T11:39:34.514Z,2.15
2019-05-03T11:42:04.674Z,2.02
2019-05-03T11:44:39.280Z,1.85
2019-05-03T11:47:09.330Z,1.50
2019-05-03T11:49:37.767Z,1.60
2019-05-03T11:52:07.019Z,1.30
2019-05-03T11:54:36.113Z,1.65
2019-05-03T11:57:09.589Z,1.47
2019-05-03T11:59:38.014Z,1.80
2019-05-03T12:02:08.186Z,1.85
2019-05-03T12:04:36.614Z,1.70
2019-05-03T12:07:05.965Z,1.57
2019-05-03T12:09:34.476Z,1.80
2019-05-03T12:12:04.760Z,1.90
2019-05-03T12:14:34.647Z,2.10
2019-05-03T12:17:17.921Z,2.00
2019-05-03T12:19:37.606Z,2.25
2019-05-03T12:22:06.127Z,1.60
2019-05-03T12:24:36.448Z,1.70
2019-05-03T12:27:05.915Z,1.57
2019-05-03T12:29:35.258Z,1.82
2019-05-03T12:32:05.226Z,2.00
2019-05-03T12:34:35.247Z,1.72
2019-05-03T12:37:05.142Z,1.95
2019-05-03T12:39:35.818Z,1.40
2019-05-03T12:42:05.937Z,1.60
2019-05-03T12:44:35.420Z,1.75
2019-05-03T12:47:06.019Z,2.10
2019-05-03T12:49:35.888Z,1.70
2019-05-03T12:52:05.501Z,1.80
2019-05-03T12:54:35.587Z,1.67
2019-05-03T12:57:05.200Z,1.92
2019-05-03T12:59:38.329Z,1.95
2019-05-03T13:02:11.101Z,1.77
2019-05-03T13:04:41.222Z,1.87
2019-05-03T13:07:11.395Z,1.77
2019-05-03T13:09:39.992Z,2.12
2019-05-03T13:12:10.110Z,1.60
2019-05-03T13:14:38.835Z,2.00
2019-05-03T13:17:07.249Z,1.67
2019-05-03T13:19:35.734Z,2.12
2019-05-03T13:22:04.285Z,2.55
2019-05-03T13:24:34.650Z,2.05
2019-05-03T13:27:05.402Z,2.02
2019-05-03T13:29:34.846Z,1.92
2019-05-03T13:32:05.395Z,1.85
2019-05-03T13:34:35.468Z,1.85
2019-05-03T13:37:03.864Z,2.50
2019-05-03T13:39:32.278Z,1.70
2019-05-03T13:42:00.718Z,1.98
2019-05-03T13:44:29.356Z,1.40
2019-05-03T13:46:57.769Z,1.60
2019-05-03T13:49:27.432Z,1.85
2019-05-03T13:51:58.551Z,1.87
2019-05-03T13:54:30.225Z,2.30
2019-05-03T13:57:00.039Z,2.80
2019-05-03T13:59:30.438Z,1.70
2019-05-03T14:02:14.504Z,1.50
2019-05-03T14:04:48.671Z,1.25
2019-05-03T14:07:05.563Z,1.82
2019-05-03T14:09:34.749Z,1.90
2019-05-03T14:12:05.596Z,2.12
2019-05-03T14:20:01.626Z,2.00
2019-05-03T14:33:28.025Z,2.52
2019-05-03T14:35:59.297Z,2.20
2019-05-03T14:38:27.820Z,1.60
2019-05-03T14:40:56.462Z,1.87
2019-05-03T14:43:27.330Z,1.70
2019-05-03T14:45:57.744Z,1.82
2019-05-03T14:48:26.226Z,1.70
2019-05-03T14:50:57.363Z,1.40
2019-05-03T14:53:25.572Z,1.82
2019-05-03T16:38:46.263Z,2.02
2019-05-03T16:41:17.466Z,1.50
2019-05-03T16:43:45.659Z,1.42
2019-05-03T16:46:14.735Z,1.80
2019-05-03T16:48:44.824Z,1.60
2019-05-03T16:51:15.081Z,2.05
2019-05-03T16:53:44.561Z,1.60
2019-05-03T16:56:17.171Z,1.85
2019-05-03T17:01:15.663Z,3.08
2019-05-03T17:03:45.768Z,2.22
2019-05-03T17:06:28.085Z,1.87
2019-05-03T17:09:10.127Z,2.30
2019-05-03T17:11:39.420Z,2.00
2019-05-03T17:14:07.933Z,2.20
2019-05-03T17:16:36.687Z,1.90
2019-05-03T17:19:06.006Z,2.30
2019-05-03T17:21:34.986Z,2.20
2019-05-03T17:24:04.382Z,2.30
2019-05-03T17:26:35.123Z,2.30
2019-05-03T17:29:04.650Z,2.25
2019-05-03T17:31:35.030Z,2.30
2019-05-03T17:34:05.382Z,2.50
2019-05-03T17:36:34.411Z,2.37
2019-05-03T17:39:04.502Z,2.77
2019-05-03T17:41:37.526Z,2.22
2019-05-03T17:44:07.579Z,2.15
2019-05-03T17:46:36.004Z,2.10
2019-05-03T17:49:05.258Z,2.22
2019-05-03T17:51:50.588Z,2.08
2019-05-03T17:54:27.170Z,2.05
2019-05-03T17:57:00.188Z,2.70
2019-05-03T17:59:44.498Z,2.67
2019-05-03T18:02:52.391Z,1.95
2019-05-03T18:05:37.574Z,2.67
2019-05-03T18:08:07.623Z,2.92
2019-05-03T18:10:37.856Z,3.10
2019-05-03T18:13:09.928Z,2.40
2019-05-03T18:18:06.207Z,2.30
2019-05-03T18:20:34.671Z,2.12
2019-05-03T18:23:04.965Z,2.10
2019-05-03T18:25:35.321Z,2.35
2019-05-03T18:28:03.897Z,2.47
2019-05-03T18:30:32.535Z,2.25
2019-05-03T18:33:00.953Z,2.40
2019-05-03T18:35:29.413Z,2.67
2019-05-03T18:37:58.314Z,2.72
2019-05-03T18:40:27.393Z,2.77
2019-05-03T18:43:00.103Z,2.60
2019-05-03T18:45:47.898Z,1.90
2019-05-03T18:48:16.358Z,2.72
2019-05-03T18:50:45.618Z,2.27
2019-05-03T18:53:15.060Z,3.58
2019-05-03T18:55:44.417Z,3.72
2019-05-03T18:58:14.850Z,3.50
2019-05-03T19:00:43.397Z,2.52
2019-05-03T19:03:12.102Z,2.02
2019-05-03T19:05:42.168Z,2.80
2019-05-03T19:08:21.020Z,2.87
2019-05-03T19:10:56.668Z,2.40
2019-05-03T19:13:35.724Z,2.60
2019-05-03T19:16:05.786Z,2.40
2019-05-03T19:18:35.860Z,2.52
2019-05-03T19:21:04.649Z,2.60
2019-05-03T19:23:33.154Z,2.80
2019-05-03T19:26:05.407Z,2.70
2019-05-03T19:28:35.398Z,2.60
2019-05-03T19:31:05.484Z,2.22
2019-05-03T19:33:34.763Z,3.00
2019-05-03T19:36:04.493Z,2.62
2019-05-03T19:38:34.983Z,2.40
2019-05-03T19:41:03.075Z,2.15
2019-05-03T19:43:32.042Z,2.25
2019-05-03T19:46:00.458Z,2.00
2019-05-03T19:48:28.940Z,1.80
2019-05-03T19:50:57.769Z,2.33
2019-05-03T19:53:27.831Z,2.42
2019-05-03T19:55:56.263Z,1.80
2019-05-03T19:58:24.986Z,1.80
2019-05-03T20:00:57.715Z,2.25
2019-05-03T20:03:35.251Z,1.90
2019-05-03T20:06:21.391Z,2.27
2019-05-03T20:08:51.511Z,2.20
2019-05-03T20:11:19.931Z,1.80
2019-05-03T20:13:48.689Z,1.92
2019-05-03T20:16:17.109Z,2.47
2019-05-03T20:18:45.838Z,1.90
2019-05-03T20:21:15.543Z,1.67
2019-05-03T20:23:44.819Z,1.80
2019-05-03T20:26:15.198Z,1.82
2019-05-03T20:28:44.847Z,1.95
2019-05-03T20:31:14.097Z,2.50
2019-05-03T20:33:42.556Z,2.05
2019-05-03T20:36:11.133Z,2.02
2019-05-03T20:38:39.572Z,2.17
2019-05-03T20:41:08.011Z,2.27
2019-05-03T20:43:55.006Z,2.08
2019-05-03T20:46:43.375Z,2.00
2019-05-03T20:49:15.022Z,1.80
2019-05-03T20:51:45.053Z,1.77
2019-05-03T20:54:15.237Z,1.50
2019-05-03T20:56:45.630Z,1.50
2019-05-03T20:59:14.737Z,1.60
2019-05-03T21:01:45.163Z,1.67
2019-05-03T21:04:15.335Z,2.12
2019-05-03T21:06:45.549Z,1.80
2019-05-03T21:09:14.820Z,1.47
2019-05-03T21:11:44.769Z,1.60
2019-05-03T21:14:15.599Z,1.75
2019-05-03T21:16:48.461Z,1.82
2019-05-03T21:19:18.535Z,2.05
2019-05-03T21:21:48.605Z,2.65
2019-05-03T21:24:24.135Z,2.75
2019-05-03T21:26:54.516Z,2.83
2019-05-03T21:29:22.596Z,2.15
2019-05-03T21:31:51.249Z,2.37
2019-05-03T21:34:19.644Z,2.05
2019-05-03T21:36:48.224Z,2.05
2019-05-03T21:39:16.692Z,2.00
2019-05-03T21:41:45.186Z,1.98
2019-05-03T21:44:15.532Z,2.50
2019-05-03T21:46:46.025Z,2.30
2019-05-03T21:49:21.789Z,2.37
2019-05-03T21:51:50.337Z,2.08
2019-05-03T21:54:18.786Z,2.12
2019-05-03T21:56:47.214Z,2.45
2019-05-03T21:59:15.632Z,2.55
2019-05-03T22:01:45.796Z,2.20
2019-05-03T22:04:15.583Z,2.72
2019-05-03T22:06:44.742Z,2.33
2019-05-03T22:09:13.333Z,2.80
2019-05-03T22:11:41.769Z,2.47
2019-05-03T22:14:11.830Z,2.58
2019-05-03T22:16:41.955Z,2.72
2019-05-03T22:19:10.383Z,2.12
2019-05-03T22:21:45.248Z,2.15
2019-05-03T22:24:15.574Z,2.60
2019-05-03T22:26:57.547Z,2.40
2019-05-03T22:29:26.029Z,2.40
2019-05-03T22:31:55.013Z,2.62
2019-05-03T22:34:25.637Z,3.00
2019-05-03T22:36:54.844Z,2.65
2019-05-03T22:39:25.042Z,2.15
2019-05-03T22:41:53.611Z,2.58
2019-05-03T22:44:22.141Z,2.42
2019-05-03T22:46:50.695Z,3.10
2019-05-03T22:49:19.154Z,2.33
2019-05-03T22:51:47.741Z,2.87
2019-05-03T22:54:16.379Z,2.98
2019-05-03T22:56:45.009Z,2.87
2019-05-03T22:59:14.710Z,2.12
2019-05-03T23:01:45.603Z,3.00
2019-05-03T23:04:14.630Z,2.60
2019-05-03T23:06:46.760Z,2.87
2019-05-03T23:09:15.657Z,2.60
2019-05-03T23:11:44.724Z,3.40
2019-05-03T23:14:15.164Z,2.60
2019-05-03T23:16:44.837Z,2.60
2019-05-03T23:19:15.003Z,3.02
2019-05-03T23:21:47.864Z,3.10
2019-05-03T23:24:16.413Z,2.75
2019-05-03T23:26:45.270Z,3.10
2019-05-03T23:29:13.761Z,2.95
2019-05-03T23:31:44.724Z,3.08
2019-05-03T23:34:12.791Z,2.90
2019-05-03T23:36:41.240Z,2.80
2019-05-03T23:39:10.153Z,3.35
2019-05-03T23:41:38.773Z,2.70
2019-05-03T23:44:07.195Z,3.15
2019-05-03T23:46:37.858Z,2.90
2019-05-03T23:49:06.316Z,2.90
2019-05-03T23:51:51.482Z,3.08
2019-05-03T23:54:19.919Z,3.00
2019-05-03T23:56:48.359Z,3.02
2019-05-03T23:59:16.804Z,3.30
